sensor_id;sensor_type;location;lat;lon;timestamp;temperature;humidity
20728;DHT22;10525;50.154;8.198;2022-08-07T00:01:01;10.90;99.90
20728;DHT22;10525;50.154;8.198;2022-08-07T00:03:29;10.90;99.90
20728;DHT22;10525;50.154;8.198;2022-08-07T00:05:56;10.80;99.90
20728;DHT22;10525;50.154;8.198;2022-08-07T00:08:22;10.80;99.90
20728;DHT22;10525;50.154;8.198;2022-08-07T00:10:49;10.80;99.90
20728;DHT22;10525;50.154;8.198;2022-08-07T00:13:17;10.70;99.90
20728;DHT22;10525;50.154;8.198;2022-08-07T00:15:44;10.70;99.90
20728;DHT22;10525;50.154;8.198;2022-08-07T00:18:11;10.60;99.90
20728;DHT22;10525;50.154;8.198;2022-08-07T00:20:39;10.60;99.90
20728;DHT22;10525;50.154;8.198;2022-08-07T00:23:06;10.50;99.90
20728;DHT22;10525;50.154;8.198;2022-08-07T00:25:33;10.50;99.90
20728;DHT22;10525;50.154;8.198;2022-08-07T00:28:00;10.40;99.90
20728;DHT22;10525;50.154;8.198;2022-08-07T00:30:27;10.40;99.90
20728;DHT22;10525;50.154;8.198;2022-08-07T00:32:54;10.40;99.90
20728;DHT22;10525;50.154;8.198;2022-08-07T00:35:21;10.30;99.90
20728;DHT22;10525;50.154;8.198;2022-08-07T00:37:49;10.30;99.90
20728;DHT22;10525;50.154;8.198;2022-08-07T00:40:16;10.20;99.90
20728;DHT22;10525;50.154;8.198;2022-08-07T00:42:43;10.30;99.90
20728;DHT22;10525;50.154;8.198;2022-08-07T00:45:10;10.30;99.90
20728;DHT22;10525;50.154;8.198;2022-08-07T00:47:37;10.20;99.90
20728;DHT22;10525;50.154;8.198;2022-08-07T00:50:05;10.10;99.90
20728;DHT22;10525;50.154;8.198;2022-08-07T00:52:32;10.10;99.90
20728;DHT22;10525;50.154;8.198;2022-08-07T00:55:00;10.10;99.90
20728;DHT22;10525;50.154;8.198;2022-08-07T00:57:28;10.10;99.90
20728;DHT22;10525;50.154;8.198;2022-08-07T00:59:55;10.10;99.90
20728;DHT22;10525;50.154;8.198;2022-08-07T01:02:22;10.00;99.90
20728;DHT22;10525;50.154;8.198;2022-08-07T01:04:49;10.00;99.90
20728;DHT22;10525;50.154;8.198;2022-08-07T01:07:17;9.90;99.90
20728;DHT22;10525;50.154;8.198;2022-08-07T01:09:44;9.90;99.90
20728;DHT22;10525;50.154;8.198;2022-08-07T01:12:13;9.80;99.90
20728;DHT22;10525;50.154;8.198;2022-08-07T01:14:41;9.80;99.90
20728;DHT22;10525;50.154;8.198;2022-08-07T01:17:08;9.70;99.90
20728;DHT22;10525;50.154;8.198;2022-08-07T01:19:36;9.60;99.90
20728;DHT22;10525;50.154;8.198;2022-08-07T01:22:04;9.60;99.90
20728;DHT22;10525;50.154;8.198;2022-08-07T01:24:31;9.60;99.90
20728;DHT22;10525;50.154;8.198;2022-08-07T01:26:59;9.60;99.90
20728;DHT22;10525;50.154;8.198;2022-08-07T01:29:27;9.60;99.90
20728;DHT22;10525;50.154;8.198;2022-08-07T01:31:54;9.50;99.90
20728;DHT22;10525;50.154;8.198;2022-08-07T01:34:21;9.50;99.90
20728;DHT22;10525;50.154;8.198;2022-08-07T01:36:48;9.50;99.90
20728;DHT22;10525;50.154;8.198;2022-08-07T01:39:16;9.40;99.90
20728;DHT22;10525;50.154;8.198;2022-08-07T01:41:43;9.40;99.90
20728;DHT22;10525;50.154;8.198;2022-08-07T01:44:10;9.40;99.90
20728;DHT22;10525;50.154;8.198;2022-08-07T01:46:38;9.30;99.90
20728;DHT22;10525;50.154;8.198;2022-08-07T01:49:05;9.30;99.90
20728;DHT22;10525;50.154;8.198;2022-08-07T01:51:32;9.20;99.90
20728;DHT22;10525;50.154;8.198;2022-08-07T01:54:03;9.20;99.90
20728;DHT22;10525;50.154;8.198;2022-08-07T01:56:42;9.20;99.90
20728;DHT22;10525;50.154;8.198;2022-08-07T01:59:14;9.10;99.90
20728;DHT22;10525;50.154;8.198;2022-08-07T02:01:46;9.20;99.90
20728;DHT22;10525;50.154;8.198;2022-08-07T02:04:17;9.10;99.90
20728;DHT22;10525;50.154;8.198;2022-08-07T02:06:46;9.10;99.90
20728;DHT22;10525;50.154;8.198;2022-08-07T02:09:15;9.10;99.90
20728;DHT22;10525;50.154;8.198;2022-08-07T02:11:45;9.00;99.90
20728;DHT22;10525;50.154;8.198;2022-08-07T02:14:16;9.00;99.90
20728;DHT22;10525;50.154;8.198;2022-08-07T02:16:45;9.10;99.90
20728;DHT22;10525;50.154;8.198;2022-08-07T02:19:13;9.00;99.90
20728;DHT22;10525;50.154;8.198;2022-08-07T02:21:42;9.00;99.90
20728;DHT22;10525;50.154;8.198;2022-08-07T02:24:11;8.90;99.90
20728;DHT22;10525;50.154;8.198;2022-08-07T02:26:39;8.90;99.90
20728;DHT22;10525;50.154;8.198;2022-08-07T02:29:09;8.90;99.90
20728;DHT22;10525;50.154;8.198;2022-08-07T02:31:37;8.80;99.90
20728;DHT22;10525;50.154;8.198;2022-08-07T02:34:05;8.70;99.90
20728;DHT22;10525;50.154;8.198;2022-08-07T02:36:33;8.80;99.90
20728;DHT22;10525;50.154;8.198;2022-08-07T02:39:03;8.70;99.90
20728;DHT22;10525;50.154;8.198;2022-08-07T02:41:32;8.80;99.90
20728;DHT22;10525;50.154;8.198;2022-08-07T02:44:00;8.80;99.90
20728;DHT22;10525;50.154;8.198;2022-08-07T02:46:29;8.80;99.90
20728;DHT22;10525;50.154;8.198;2022-08-07T02:48:57;8.80;99.90
20728;DHT22;10525;50.154;8.198;2022-08-07T02:51:24;8.80;99.90
20728;DHT22;10525;50.154;8.198;2022-08-07T02:53:53;8.70;99.90
20728;DHT22;10525;50.154;8.198;2022-08-07T02:56:22;8.70;99.90
20728;DHT22;10525;50.154;8.198;2022-08-07T02:58:51;8.60;99.90
20728;DHT22;10525;50.154;8.198;2022-08-07T03:01:19;8.70;99.90
20728;DHT22;10525;50.154;8.198;2022-08-07T03:03:48;8.60;99.90
20728;DHT22;10525;50.154;8.198;2022-08-07T03:06:17;8.60;99.90
20728;DHT22;10525;50.154;8.198;2022-08-07T03:08:45;8.50;99.90
20728;DHT22;10525;50.154;8.198;2022-08-07T03:11:11;8.60;99.90
20728;DHT22;10525;50.154;8.198;2022-08-07T03:13:39;8.50;99.90
20728;DHT22;10525;50.154;8.198;2022-08-07T03:16:06;8.50;99.90
20728;DHT22;10525;50.154;8.198;2022-08-07T03:18:33;8.40;99.90
20728;DHT22;10525;50.154;8.198;2022-08-07T03:21:02;8.40;99.90
20728;DHT22;10525;50.154;8.198;2022-08-07T03:23:30;8.30;99.90
20728;DHT22;10525;50.154;8.198;2022-08-07T03:25:59;8.30;99.90
20728;DHT22;10525;50.154;8.198;2022-08-07T03:28:28;8.30;99.90
20728;DHT22;10525;50.154;8.198;2022-08-07T03:30:56;8.20;99.90
20728;DHT22;10525;50.154;8.198;2022-08-07T03:33:37;8.20;99.90
20728;DHT22;10525;50.154;8.198;2022-08-07T03:36:07;8.10;99.90
20728;DHT22;10525;50.154;8.198;2022-08-07T03:38:36;8.20;99.90
20728;DHT22;10525;50.154;8.198;2022-08-07T03:41:03;8.10;99.90
20728;DHT22;10525;50.154;8.198;2022-08-07T03:43:30;8.10;99.90
20728;DHT22;10525;50.154;8.198;2022-08-07T03:45:57;8.10;99.90
20728;DHT22;10525;50.154;8.198;2022-08-07T03:48:25;8.10;99.90
20728;DHT22;10525;50.154;8.198;2022-08-07T03:50:54;8.10;99.90
20728;DHT22;10525;50.154;8.198;2022-08-07T03:53:23;8.10;99.90
20728;DHT22;10525;50.154;8.198;2022-08-07T03:55:50;8.10;99.90
20728;DHT22;10525;50.154;8.198;2022-08-07T03:58:19;8.00;99.90
20728;DHT22;10525;50.154;8.198;2022-08-07T04:00:47;8.10;99.90
20728;DHT22;10525;50.154;8.198;2022-08-07T04:03:15;8.00;99.90
20728;DHT22;10525;50.154;8.198;2022-08-07T04:05:41;8.00;99.90
20728;DHT22;10525;50.154;8.198;2022-08-07T04:08:10;8.10;99.90
20728;DHT22;10525;50.154;8.198;2022-08-07T04:10:38;8.00;99.90
20728;DHT22;10525;50.154;8.198;2022-08-07T04:13:05;8.00;99.90
20728;DHT22;10525;50.154;8.198;2022-08-07T04:15:33;8.00;99.90
20728;DHT22;10525;50.154;8.198;2022-08-07T04:18:00;8.00;99.90
20728;DHT22;10525;50.154;8.198;2022-08-07T04:20:27;8.10;99.90
20728;DHT22;10525;50.154;8.198;2022-08-07T04:22:54;8.00;99.90
20728;DHT22;10525;50.154;8.198;2022-08-07T04:25:22;8.00;99.90
20728;DHT22;10525;50.154;8.198;2022-08-07T04:27:50;8.00;99.90
20728;DHT22;10525;50.154;8.198;2022-08-07T04:30:17;8.00;99.90
20728;DHT22;10525;50.154;8.198;2022-08-07T04:32:44;8.10;99.90
20728;DHT22;10525;50.154;8.198;2022-08-07T04:35:11;8.10;99.90
20728;DHT22;10525;50.154;8.198;2022-08-07T04:37:38;8.20;99.90
20728;DHT22;10525;50.154;8.198;2022-08-07T04:40:06;8.30;99.90
20728;DHT22;10525;50.154;8.198;2022-08-07T04:42:33;8.40;99.90
20728;DHT22;10525;50.154;8.198;2022-08-07T04:45:02;8.40;99.90
20728;DHT22;10525;50.154;8.198;2022-08-07T04:47:34;8.40;99.90
20728;DHT22;10525;50.154;8.198;2022-08-07T04:50:08;8.60;99.90
20728;DHT22;10525;50.154;8.198;2022-08-07T04:52:45;8.70;99.90
20728;DHT22;10525;50.154;8.198;2022-08-07T04:55:21;8.90;99.90
20728;DHT22;10525;50.154;8.198;2022-08-07T04:57:51;9.20;99.90
20728;DHT22;10525;50.154;8.198;2022-08-07T05:00:30;9.50;99.90
20728;DHT22;10525;50.154;8.198;2022-08-07T05:03:04;9.40;99.90
20728;DHT22;10525;50.154;8.198;2022-08-07T05:05:41;9.40;99.90
20728;DHT22;10525;50.154;8.198;2022-08-07T05:08:14;9.40;99.90
20728;DHT22;10525;50.154;8.198;2022-08-07T05:10:47;9.30;99.90
20728;DHT22;10525;50.154;8.198;2022-08-07T05:13:18;9.30;99.90
20728;DHT22;10525;50.154;8.198;2022-08-07T05:15:49;9.60;99.90
20728;DHT22;10525;50.154;8.198;2022-08-07T05:18:19;10.50;99.90
20728;DHT22;10525;50.154;8.198;2022-08-07T05:20:52;10.60;99.90
20728;DHT22;10525;50.154;8.198;2022-08-07T05:23:21;10.30;99.90
20728;DHT22;10525;50.154;8.198;2022-08-07T05:25:51;10.00;99.90
20728;DHT22;10525;50.154;8.198;2022-08-07T05:28:19;9.90;99.90
20728;DHT22;10525;50.154;8.198;2022-08-07T05:30:48;9.90;99.90
20728;DHT22;10525;50.154;8.198;2022-08-07T05:33:16;9.90;99.90
20728;DHT22;10525;50.154;8.198;2022-08-07T05:35:43;9.90;99.90
20728;DHT22;10525;50.154;8.198;2022-08-07T05:38:11;10.00;99.90
20728;DHT22;10525;50.154;8.198;2022-08-07T05:40:38;10.00;99.90
20728;DHT22;10525;50.154;8.198;2022-08-07T05:43:05;10.10;99.90
20728;DHT22;10525;50.154;8.198;2022-08-07T05:45:32;10.10;99.90
20728;DHT22;10525;50.154;8.198;2022-08-07T05:48:01;10.30;99.90
20728;DHT22;10525;50.154;8.198;2022-08-07T05:50:29;10.40;99.90
20728;DHT22;10525;50.154;8.198;2022-08-07T05:52:58;10.50;99.90
20728;DHT22;10525;50.154;8.198;2022-08-07T05:55:25;10.60;99.90
20728;DHT22;10525;50.154;8.198;2022-08-07T05:57:53;10.60;99.90
20728;DHT22;10525;50.154;8.198;2022-08-07T06:00:21;10.90;99.90
20728;DHT22;10525;50.154;8.198;2022-08-07T06:02:49;11.00;99.90
20728;DHT22;10525;50.154;8.198;2022-08-07T06:05:19;11.10;99.90
20728;DHT22;10525;50.154;8.198;2022-08-07T06:07:47;11.30;99.90
20728;DHT22;10525;50.154;8.198;2022-08-07T06:10:14;11.40;99.90
20728;DHT22;10525;50.154;8.198;2022-08-07T06:12:41;11.60;99.90
20728;DHT22;10525;50.154;8.198;2022-08-07T06:15:12;11.70;99.90
20728;DHT22;10525;50.154;8.198;2022-08-07T06:17:39;11.80;99.90
20728;DHT22;10525;50.154;8.198;2022-08-07T06:20:08;12.00;99.90
20728;DHT22;10525;50.154;8.198;2022-08-07T06:22:38;12.20;99.90
20728;DHT22;10525;50.154;8.198;2022-08-07T06:25:06;12.40;99.90
20728;DHT22;10525;50.154;8.198;2022-08-07T06:27:33;12.60;99.90
20728;DHT22;10525;50.154;8.198;2022-08-07T06:30:00;12.70;99.90
20728;DHT22;10525;50.154;8.198;2022-08-07T06:32:26;12.80;99.90
20728;DHT22;10525;50.154;8.198;2022-08-07T06:34:53;13.00;99.90
20728;DHT22;10525;50.154;8.198;2022-08-07T06:37:20;13.30;99.90
20728;DHT22;10525;50.154;8.198;2022-08-07T06:39:48;13.30;99.90
20728;DHT22;10525;50.154;8.198;2022-08-07T06:42:16;13.40;99.90
20728;DHT22;10525;50.154;8.198;2022-08-07T06:44:45;13.50;99.90
20728;DHT22;10525;50.154;8.198;2022-08-07T06:47:12;13.60;99.90
20728;DHT22;10525;50.154;8.198;2022-08-07T06:49:40;13.80;99.90
20728;DHT22;10525;50.154;8.198;2022-08-07T06:52:08;14.00;99.90
20728;DHT22;10525;50.154;8.198;2022-08-07T06:54:36;14.10;99.90
20728;DHT22;10525;50.154;8.198;2022-08-07T06:57:06;14.30;99.90
20728;DHT22;10525;50.154;8.198;2022-08-07T06:59:37;14.50;99.90
20728;DHT22;10525;50.154;8.198;2022-08-07T07:02:07;14.70;99.90
20728;DHT22;10525;50.154;8.198;2022-08-07T07:04:34;15.00;99.90
20728;DHT22;10525;50.154;8.198;2022-08-07T07:07:03;15.10;99.90
20728;DHT22;10525;50.154;8.198;2022-08-07T07:09:32;15.20;99.90
20728;DHT22;10525;50.154;8.198;2022-08-07T07:12:29;15.20;99.90
20728;DHT22;10525;50.154;8.198;2022-08-07T07:15:00;15.40;99.90
20728;DHT22;10525;50.154;8.198;2022-08-07T07:17:33;15.50;99.90
20728;DHT22;10525;50.154;8.198;2022-08-07T07:20:05;15.80;99.90
20728;DHT22;10525;50.154;8.198;2022-08-07T07:22:33;16.00;99.90
20728;DHT22;10525;50.154;8.198;2022-08-07T07:25:00;16.10;99.90
20728;DHT22;10525;50.154;8.198;2022-08-07T07:27:32;16.30;99.90
20728;DHT22;10525;50.154;8.198;2022-08-07T07:30:03;16.50;99.90
20728;DHT22;10525;50.154;8.198;2022-08-07T07:32:32;16.60;99.90
20728;DHT22;10525;50.154;8.198;2022-08-07T07:35:02;16.80;99.90
20728;DHT22;10525;50.154;8.198;2022-08-07T07:37:29;17.10;99.90
20728;DHT22;10525;50.154;8.198;2022-08-07T07:39:59;17.30;99.90
20728;DHT22;10525;50.154;8.198;2022-08-07T07:42:30;17.40;99.90
20728;DHT22;10525;50.154;8.198;2022-08-07T07:44:58;17.60;99.90
20728;DHT22;10525;50.154;8.198;2022-08-07T07:47:29;17.80;99.90
20728;DHT22;10525;50.154;8.198;2022-08-07T07:49:58;18.00;99.90
20728;DHT22;10525;50.154;8.198;2022-08-07T07:52:26;18.20;99.90
20728;DHT22;10525;50.154;8.198;2022-08-07T07:54:54;18.30;99.90
20728;DHT22;10525;50.154;8.198;2022-08-07T07:57:23;18.40;99.90
20728;DHT22;10525;50.154;8.198;2022-08-07T07:59:53;18.60;99.90
20728;DHT22;10525;50.154;8.198;2022-08-07T08:02:21;18.70;99.90
20728;DHT22;10525;50.154;8.198;2022-08-07T08:04:49;18.80;99.90
20728;DHT22;10525;50.154;8.198;2022-08-07T08:07:16;18.90;99.90
20728;DHT22;10525;50.154;8.198;2022-08-07T08:09:43;18.90;99.90
20728;DHT22;10525;50.154;8.198;2022-08-07T08:12:12;19.00;99.90
20728;DHT22;10525;50.154;8.198;2022-08-07T08:14:39;19.10;99.90
20728;DHT22;10525;50.154;8.198;2022-08-07T08:17:09;19.20;99.90
20728;DHT22;10525;50.154;8.198;2022-08-07T08:19:38;19.20;99.90
20728;DHT22;10525;50.154;8.198;2022-08-07T08:22:06;19.30;99.90
20728;DHT22;10525;50.154;8.198;2022-08-07T08:24:54;19.40;99.90
20728;DHT22;10525;50.154;8.198;2022-08-07T08:27:41;19.50;99.90
20728;DHT22;10525;50.154;8.198;2022-08-07T08:30:09;19.60;99.90
20728;DHT22;10525;50.154;8.198;2022-08-07T08:32:40;19.60;99.90
20728;DHT22;10525;50.154;8.198;2022-08-07T08:35:10;19.70;99.90
20728;DHT22;10525;50.154;8.198;2022-08-07T08:37:40;19.90;99.90
20728;DHT22;10525;50.154;8.198;2022-08-07T08:40:13;19.90;99.90
20728;DHT22;10525;50.154;8.198;2022-08-07T08:42:45;20.00;99.90
20728;DHT22;10525;50.154;8.198;2022-08-07T08:45:20;19.90;99.90
20728;DHT22;10525;50.154;8.198;2022-08-07T08:47:57;19.80;99.90
20728;DHT22;10525;50.154;8.198;2022-08-07T08:50:30;19.80;99.90
20728;DHT22;10525;50.154;8.198;2022-08-07T08:53:03;19.90;99.90
20728;DHT22;10525;50.154;8.198;2022-08-07T08:55:36;20.00;99.90
20728;DHT22;10525;50.154;8.198;2022-08-07T08:58:07;20.00;99.90
20728;DHT22;10525;50.154;8.198;2022-08-07T09:00:41;20.30;99.90
20728;DHT22;10525;50.154;8.198;2022-08-07T09:03:18;20.50;99.90
20728;DHT22;10525;50.154;8.198;2022-08-07T09:05:53;20.50;99.90
20728;DHT22;10525;50.154;8.198;2022-08-07T09:08:39;20.50;99.90
20728;DHT22;10525;50.154;8.198;2022-08-07T09:11:14;20.60;99.90
20728;DHT22;10525;50.154;8.198;2022-08-07T09:13:53;20.50;99.90
20728;DHT22;10525;50.154;8.198;2022-08-07T09:16:27;20.60;99.90
20728;DHT22;10525;50.154;8.198;2022-08-07T09:19:21;20.70;99.90
20728;DHT22;10525;50.154;8.198;2022-08-07T09:21:58;20.90;99.90
20728;DHT22;10525;50.154;8.198;2022-08-07T09:24:38;21.00;99.90
20728;DHT22;10525;50.154;8.198;2022-08-07T09:27:14;21.10;99.90
20728;DHT22;10525;50.154;8.198;2022-08-07T09:29:54;21.20;99.90
20728;DHT22;10525;50.154;8.198;2022-08-07T09:35:16;21.10;99.90
20728;DHT22;10525;50.154;8.198;2022-08-07T09:37:48;21.30;99.90
20728;DHT22;10525;50.154;8.198;2022-08-07T09:40:22;21.50;99.90
20728;DHT22;10525;50.154;8.198;2022-08-07T09:42:57;21.80;99.90
20728;DHT22;10525;50.154;8.198;2022-08-07T09:45:36;21.90;99.90
20728;DHT22;10525;50.154;8.198;2022-08-07T09:48:33;22.00;99.90
20728;DHT22;10525;50.154;8.198;2022-08-07T09:51:19;22.10;99.90
20728;DHT22;10525;50.154;8.198;2022-08-07T09:53:50;22.20;99.90
20728;DHT22;10525;50.154;8.198;2022-08-07T09:56:44;22.20;99.90
20728;DHT22;10525;50.154;8.198;2022-08-07T09:59:37;22.20;99.90
20728;DHT22;10525;50.154;8.198;2022-08-07T10:02:24;22.10;99.90
20728;DHT22;10525;50.154;8.198;2022-08-07T10:05:15;22.10;99.90
20728;DHT22;10525;50.154;8.198;2022-08-07T10:07:58;22.10;99.90
20728;DHT22;10525;50.154;8.198;2022-08-07T10:10:35;22.10;99.90
20728;DHT22;10525;50.154;8.198;2022-08-07T10:13:21;22.30;99.90
20728;DHT22;10525;50.154;8.198;2022-08-07T10:16:01;22.60;99.90
20728;DHT22;10525;50.154;8.198;2022-08-07T10:18:40;22.50;99.90
20728;DHT22;10525;50.154;8.198;2022-08-07T10:21:25;22.00;99.90
20728;DHT22;10525;50.154;8.198;2022-08-07T10:24:22;21.90;99.90
20728;DHT22;10525;50.154;8.198;2022-08-07T10:27:05;22.00;99.90
20728;DHT22;10525;50.154;8.198;2022-08-07T10:29:51;22.40;99.90
20728;DHT22;10525;50.154;8.198;2022-08-07T10:32:33;22.70;99.90
20728;DHT22;10525;50.154;8.198;2022-08-07T10:35:11;22.90;99.90
20728;DHT22;10525;50.154;8.198;2022-08-07T10:37:47;23.20;99.90
20728;DHT22;10525;50.154;8.198;2022-08-07T10:40:24;23.40;99.90
20728;DHT22;10525;50.154;8.198;2022-08-07T10:42:59;23.40;99.90
20728;DHT22;10525;50.154;8.198;2022-08-07T10:45:30;23.20;99.90
20728;DHT22;10525;50.154;8.198;2022-08-07T10:48:13;23.30;99.90
20728;DHT22;10525;50.154;8.198;2022-08-07T10:50:45;23.40;99.90
20728;DHT22;10525;50.154;8.198;2022-08-07T10:53:20;23.40;99.90
20728;DHT22;10525;50.154;8.198;2022-08-07T10:55:57;23.40;99.90
20728;DHT22;10525;50.154;8.198;2022-08-07T10:58:41;23.70;99.90
20728;DHT22;10525;50.154;8.198;2022-08-07T11:01:30;24.10;99.90
20728;DHT22;10525;50.154;8.198;2022-08-07T11:04:04;24.20;99.90
20728;DHT22;10525;50.154;8.198;2022-08-07T11:06:39;24.30;99.90
20728;DHT22;10525;50.154;8.198;2022-08-07T11:09:09;24.20;99.90
20728;DHT22;10525;50.154;8.198;2022-08-07T11:11:45;24.20;99.90
20728;DHT22;10525;50.154;8.198;2022-08-07T11:14:21;24.20;99.90
20728;DHT22;10525;50.154;8.198;2022-08-07T11:16:53;24.50;99.90
20728;DHT22;10525;50.154;8.198;2022-08-07T11:19:28;24.70;99.90
20728;DHT22;10525;50.154;8.198;2022-08-07T11:22:04;24.90;99.90
20728;DHT22;10525;50.154;8.198;2022-08-07T11:24:37;25.00;99.90
20728;DHT22;10525;50.154;8.198;2022-08-07T11:27:11;25.00;99.90
20728;DHT22;10525;50.154;8.198;2022-08-07T11:29:41;25.30;99.90
20728;DHT22;10525;50.154;8.198;2022-08-07T11:32:13;25.30;99.90
20728;DHT22;10525;50.154;8.198;2022-08-07T11:34:45;25.40;99.90
20728;DHT22;10525;50.154;8.198;2022-08-07T11:37:21;25.30;99.90
20728;DHT22;10525;50.154;8.198;2022-08-07T11:40:06;25.00;99.90
20728;DHT22;10525;50.154;8.198;2022-08-07T11:42:44;24.30;99.90
20728;DHT22;10525;50.154;8.198;2022-08-07T11:45:31;24.50;99.90
20728;DHT22;10525;50.154;8.198;2022-08-07T11:48:20;24.60;99.90
20728;DHT22;10525;50.154;8.198;2022-08-07T11:50:57;24.70;99.90
20728;DHT22;10525;50.154;8.198;2022-08-07T11:53:36;24.90;99.90
20728;DHT22;10525;50.154;8.198;2022-08-07T11:56:17;24.90;99.90
20728;DHT22;10525;50.154;8.198;2022-08-07T11:59:00;24.60;99.90
20728;DHT22;10525;50.154;8.198;2022-08-07T12:01:41;24.40;99.90
20728;DHT22;10525;50.154;8.198;2022-08-07T12:04:30;24.30;99.90
20728;DHT22;10525;50.154;8.198;2022-08-07T12:07:05;24.50;99.90
20728;DHT22;10525;50.154;8.198;2022-08-07T12:09:36;24.60;99.90
20728;DHT22;10525;50.154;8.198;2022-08-07T12:12:07;24.30;99.90
20728;DHT22;10525;50.154;8.198;2022-08-07T12:14:43;24.30;99.90
20728;DHT22;10525;50.154;8.198;2022-08-07T12:17:12;24.30;99.90
20728;DHT22;10525;50.154;8.198;2022-08-07T12:19:45;24.40;99.90
20728;DHT22;10525;50.154;8.198;2022-08-07T12:22:21;24.40;99.90
20728;DHT22;10525;50.154;8.198;2022-08-07T12:24:55;24.40;99.90
20728;DHT22;10525;50.154;8.198;2022-08-07T12:27:45;24.40;99.90
20728;DHT22;10525;50.154;8.198;2022-08-07T12:30:15;24.40;99.90
20728;DHT22;10525;50.154;8.198;2022-08-07T12:32:49;24.30;99.90
20728;DHT22;10525;50.154;8.198;2022-08-07T12:35:18;24.40;99.90
20728;DHT22;10525;50.154;8.198;2022-08-07T12:37:47;24.50;99.90
20728;DHT22;10525;50.154;8.198;2022-08-07T12:40:18;24.40;99.90
20728;DHT22;10525;50.154;8.198;2022-08-07T12:42:46;24.60;99.90
20728;DHT22;10525;50.154;8.198;2022-08-07T12:45:21;24.50;99.90
20728;DHT22;10525;50.154;8.198;2022-08-07T12:47:54;24.30;99.90
20728;DHT22;10525;50.154;8.198;2022-08-07T12:50:36;24.30;99.90
20728;DHT22;10525;50.154;8.198;2022-08-07T12:53:14;24.10;99.90
20728;DHT22;10525;50.154;8.198;2022-08-07T12:55:46;24.10;99.90
20728;DHT22;10525;50.154;8.198;2022-08-07T12:58:17;24.00;99.90
20728;DHT22;10525;50.154;8.198;2022-08-07T13:00:53;24.20;99.90
20728;DHT22;10525;50.154;8.198;2022-08-07T13:03:44;24.10;99.90
20728;DHT22;10525;50.154;8.198;2022-08-07T13:06:25;24.20;99.90
20728;DHT22;10525;50.154;8.198;2022-08-07T13:09:00;24.20;99.90
20728;DHT22;10525;50.154;8.198;2022-08-07T13:11:45;24.30;99.90
20728;DHT22;10525;50.154;8.198;2022-08-07T13:14:20;24.30;99.90
20728;DHT22;10525;50.154;8.198;2022-08-07T13:16:57;24.30;99.90
20728;DHT22;10525;50.154;8.198;2022-08-07T13:19:29;24.50;99.90
20728;DHT22;10525;50.154;8.198;2022-08-07T13:22:01;24.50;99.90
20728;DHT22;10525;50.154;8.198;2022-08-07T13:24:35;24.40;99.90
20728;DHT22;10525;50.154;8.198;2022-08-07T13:27:10;24.50;99.90
20728;DHT22;10525;50.154;8.198;2022-08-07T13:29:46;24.60;99.90
20728;DHT22;10525;50.154;8.198;2022-08-07T13:32:20;24.90;99.90
20728;DHT22;10525;50.154;8.198;2022-08-07T13:34:55;24.70;99.90
20728;DHT22;10525;50.154;8.198;2022-08-07T13:37:28;24.50;99.90
20728;DHT22;10525;50.154;8.198;2022-08-07T13:40:05;24.50;99.90
20728;DHT22;10525;50.154;8.198;2022-08-07T13:42:35;24.30;99.90
20728;DHT22;10525;50.154;8.198;2022-08-07T13:45:04;24.30;99.90
20728;DHT22;10525;50.154;8.198;2022-08-07T13:47:34;24.40;99.90
20728;DHT22;10525;50.154;8.198;2022-08-07T13:50:02;24.70;99.90
20728;DHT22;10525;50.154;8.198;2022-08-07T13:52:30;24.70;99.90
20728;DHT22;10525;50.154;8.198;2022-08-07T13:54:58;24.60;99.90
20728;DHT22;10525;50.154;8.198;2022-08-07T13:57:31;24.50;99.90
20728;DHT22;10525;50.154;8.198;2022-08-07T13:59:59;24.50;99.90
20728;DHT22;10525;50.154;8.198;2022-08-07T14:02:33;24.40;99.90
20728;DHT22;10525;50.154;8.198;2022-08-07T14:05:03;24.30;99.90
20728;DHT22;10525;50.154;8.198;2022-08-07T14:07:36;24.60;99.90
20728;DHT22;10525;50.154;8.198;2022-08-07T14:10:04;25.00;99.90
20728;DHT22;10525;50.154;8.198;2022-08-07T14:12:35;25.00;99.90
20728;DHT22;10525;50.154;8.198;2022-08-07T14:15:09;24.90;99.90
20728;DHT22;10525;50.154;8.198;2022-08-07T14:17:44;24.80;99.90
20728;DHT22;10525;50.154;8.198;2022-08-07T14:20:18;24.80;99.90
20728;DHT22;10525;50.154;8.198;2022-08-07T14:22:47;24.80;99.90
20728;DHT22;10525;50.154;8.198;2022-08-07T14:25:17;24.70;99.90
20728;DHT22;10525;50.154;8.198;2022-08-07T14:27:45;24.50;99.90
20728;DHT22;10525;50.154;8.198;2022-08-07T14:30:13;24.50;99.90
20728;DHT22;10525;50.154;8.198;2022-08-07T14:32:43;24.70;99.90
20728;DHT22;10525;50.154;8.198;2022-08-07T14:35:16;24.80;99.90
20728;DHT22;10525;50.154;8.198;2022-08-07T14:37:46;24.80;99.90
20728;DHT22;10525;50.154;8.198;2022-08-07T14:40:15;24.60;99.90
20728;DHT22;10525;50.154;8.198;2022-08-07T14:42:43;24.60;99.90
20728;DHT22;10525;50.154;8.198;2022-08-07T14:45:12;24.60;99.90
20728;DHT22;10525;50.154;8.198;2022-08-07T14:47:40;24.50;99.90
20728;DHT22;10525;50.154;8.198;2022-08-07T14:50:11;24.50;99.90
20728;DHT22;10525;50.154;8.198;2022-08-07T14:52:44;24.80;99.90
20728;DHT22;10525;50.154;8.198;2022-08-07T14:55:12;24.50;99.90
20728;DHT22;10525;50.154;8.198;2022-08-07T14:57:40;24.40;99.90
20728;DHT22;10525;50.154;8.198;2022-08-07T15:00:09;24.40;99.90
20728;DHT22;10525;50.154;8.198;2022-08-07T15:02:37;24.50;99.90
20728;DHT22;10525;50.154;8.198;2022-08-07T15:05:06;24.50;99.90
20728;DHT22;10525;50.154;8.198;2022-08-07T15:07:35;24.50;99.90
20728;DHT22;10525;50.154;8.198;2022-08-07T15:10:01;24.50;99.90
20728;DHT22;10525;50.154;8.198;2022-08-07T15:12:34;24.60;99.90
20728;DHT22;10525;50.154;8.198;2022-08-07T15:15:04;24.70;99.90
20728;DHT22;10525;50.154;8.198;2022-08-07T15:17:35;24.60;99.90
20728;DHT22;10525;50.154;8.198;2022-08-07T15:20:07;24.60;99.90
20728;DHT22;10525;50.154;8.198;2022-08-07T15:22:44;24.60;99.90
20728;DHT22;10525;50.154;8.198;2022-08-07T15:25:14;24.40;99.90
20728;DHT22;10525;50.154;8.198;2022-08-07T15:27:43;24.60;99.90
20728;DHT22;10525;50.154;8.198;2022-08-07T15:30:11;24.60;99.90
20728;DHT22;10525;50.154;8.198;2022-08-07T15:32:40;24.60;99.90
20728;DHT22;10525;50.154;8.198;2022-08-07T15:35:14;24.40;99.90
20728;DHT22;10525;50.154;8.198;2022-08-07T15:37:43;24.40;99.90
20728;DHT22;10525;50.154;8.198;2022-08-07T15:40:14;24.40;99.90
20728;DHT22;10525;50.154;8.198;2022-08-07T15:42:52;24.40;99.90
20728;DHT22;10525;50.154;8.198;2022-08-07T15:45:32;24.50;99.90
20728;DHT22;10525;50.154;8.198;2022-08-07T15:48:03;24.50;99.90
20728;DHT22;10525;50.154;8.198;2022-08-07T15:50:33;24.40;99.90
20728;DHT22;10525;50.154;8.198;2022-08-07T15:53:05;24.40;99.90
20728;DHT22;10525;50.154;8.198;2022-08-07T15:55:33;24.40;99.90
20728;DHT22;10525;50.154;8.198;2022-08-07T15:58:02;24.30;99.90
20728;DHT22;10525;50.154;8.198;2022-08-07T16:00:35;24.20;99.90
20728;DHT22;10525;50.154;8.198;2022-08-07T16:03:09;24.20;99.90
20728;DHT22;10525;50.154;8.198;2022-08-07T16:05:38;24.30;99.90